BVLO2: Caney River, Bartlesville, OK

Data processed at Tue May 21 2019 23:50


All information presented herein is the property of the government of the United States of America and may be revised or deleted at any time without prior notice.
Dissemination of this information without the expressed written consent of the Public Affairs Office, Tulsa District U.S. Army Corps of Engineers is strictly prohibited.
These data are gathered electronically and, as presented, have not undergone any form of quality control. These data are not guaranteed to be valid or correct.
Go to home page.
Go to station list.
Go to home page.

Upstream stations:

Downstream station:
Previous Day
Next Day
Current Day
    
SHEF ID:       BVLO2     Caney River above Coon Creek at
STATION TYPE:  
Regulating: Stage =    13.00, Flow =    12600

               PRECIP     STAGE  STAGE(2)  RIV-FLOW  BAT-LOAD
                   in        ft        ft       cfs      volt
              Ccp-Rev   Ccp-Rev   Ccp-Rev   Ccp-Rev   Ccp-Rev
(US/Central)
05/21 00:00      0.11     12.39      ----     11982     12.57
05/21 01:00      0.54     13.75      ----     13201     12.49
05/21 02:00      0.06     14.56      ----     13872     12.49
05/21 03:00      0.04     15.09      ----     14508     12.49
05/21 04:00      0.01     15.58      ----     15112     12.49
05/21 05:00      0.05     15.94      ----     15616     12.49
05/21 06:00      0.25     16.25      ----     16148     12.49
05/21 07:00      1.02     16.58      ----     16758     12.49
05/21 08:00      0.44     16.85      ----     17298     12.49
05/21 09:00      0.24     17.06      ----     17730     12.49
05/21 10:00      0.08     17.25      ----     18146     12.49
05/21 11:00      0.01     17.47      ----     18633     12.57
05/21 12:00      0.02     17.66      ----     19325     12.65
05/21 13:00      0.00     17.85      ----     20086     12.65
05/21 14:00      0.00     17.99      ----     20659     13.05
05/21 15:00      0.00     18.09      ----     21065     13.44
05/21 16:00      0.00     18.17      ----     21393     13.68
05/21 17:00      0.00     18.20      ----     21517     13.37
05/21 18:00      0.00     18.21      ----     21558     13.13
05/21 19:00      0.00     18.16      ----     21352     13.05
05/21 20:00      0.00     18.09      ----     21065     12.97
05/21 21:00      0.00     18.00      ----     20700     12.73
05/21 22:00      0.00     17.90      ----     20289     12.65
05/21 23:00      0.00     17.81      ----     19924     12.65